sensor_id;sensor_type;location;lat;lon;timestamp;pressure;altitude;pressure_sealevel;temperature
67599;BMP280;62026;39.230;9.122;2022-08-21T00:01:12;100933.25;;;27.08
67599;BMP280;62026;39.230;9.122;2022-08-21T00:03:40;100929.59;;;27.04
67599;BMP280;62026;39.230;9.122;2022-08-21T00:06:06;100926.59;;;27.06
67599;BMP280;62026;39.230;9.122;2022-08-21T00:08:33;100916.69;;;27.01
67599;BMP280;62026;39.230;9.122;2022-08-21T00:10:59;100916.84;;;26.96
67599;BMP280;62026;39.230;9.122;2022-08-21T00:13:25;100922.44;;;27.00
67599;BMP280;62026;39.230;9.122;2022-08-21T00:15:51;100920.03;;;26.98
67599;BMP280;62026;39.230;9.122;2022-08-21T00:18:18;100911.41;;;26.96
67599;BMP280;62026;39.230;9.122;2022-08-21T00:20:46;100919.41;;;27.01
67599;BMP280;62026;39.230;9.122;2022-08-21T00:23:13;100912.22;;;26.97
67599;BMP280;62026;39.230;9.122;2022-08-21T00:25:42;100904.75;;;26.94
67599;BMP280;62026;39.230;9.122;2022-08-21T00:28:10;100912.06;;;26.93
67599;BMP280;62026;39.230;9.122;2022-08-21T00:30:36;100907.13;;;26.87
67599;BMP280;62026;39.230;9.122;2022-08-21T00:33:03;100904.09;;;26.88
67599;BMP280;62026;39.230;9.122;2022-08-21T00:35:35;100896.94;;;26.84
67599;BMP280;62026;39.230;9.122;2022-08-21T00:38:03;100896.16;;;26.83
67599;BMP280;62026;39.230;9.122;2022-08-21T00:40:43;100901.56;;;26.83
67599;BMP280;62026;39.230;9.122;2022-08-21T00:43:13;100895.16;;;26.79
67599;BMP280;62026;39.230;9.122;2022-08-21T00:45:40;100899.47;;;26.80
67599;BMP280;62026;39.230;9.122;2022-08-21T00:48:06;100892.63;;;26.74
67599;BMP280;62026;39.230;9.122;2022-08-21T00:50:38;100891.53;;;26.75
67599;BMP280;62026;39.230;9.122;2022-08-21T00:53:06;100897.25;;;26.73
67599;BMP280;62026;39.230;9.122;2022-08-21T00:55:35;100900.75;;;26.74
67599;BMP280;62026;39.230;9.122;2022-08-21T00:58:05;100890.13;;;26.69
67599;BMP280;62026;39.230;9.122;2022-08-21T01:00:37;100888.53;;;26.68
67599;BMP280;62026;39.230;9.122;2022-08-21T01:05:37;100889.47;;;26.72
67599;BMP280;62026;39.230;9.122;2022-08-21T01:08:04;100882.75;;;26.69
67599;BMP280;62026;39.230;9.122;2022-08-21T01:10:33;100882.28;;;26.67
67599;BMP280;62026;39.230;9.122;2022-08-21T01:13:00;100886.88;;;26.67
67599;BMP280;62026;39.230;9.122;2022-08-21T01:15:32;100894.56;;;26.65
67599;BMP280;62026;39.230;9.122;2022-08-21T01:17:59;100889.13;;;26.65
67599;BMP280;62026;39.230;9.122;2022-08-21T01:20:26;100874.31;;;26.54
67599;BMP280;62026;39.230;9.122;2022-08-21T01:22:53;100885.94;;;26.63
67599;BMP280;62026;39.230;9.122;2022-08-21T01:25:19;100882.59;;;26.57
67599;BMP280;62026;39.230;9.122;2022-08-21T01:27:46;100881.66;;;26.62
67599;BMP280;62026;39.230;9.122;2022-08-21T01:30:18;100875.91;;;26.55
67599;BMP280;62026;39.230;9.122;2022-08-21T01:32:46;100879.56;;;26.59
67599;BMP280;62026;39.230;9.122;2022-08-21T01:35:16;100881.34;;;26.55
67599;BMP280;62026;39.230;9.122;2022-08-21T01:37:43;100885.47;;;26.52
67599;BMP280;62026;39.230;9.122;2022-08-21T01:40:11;100877.50;;;26.47
67599;BMP280;62026;39.230;9.122;2022-08-21T01:42:38;100882.13;;;26.47
67599;BMP280;62026;39.230;9.122;2022-08-21T01:45:07;100886.88;;;26.50
67599;BMP280;62026;39.230;9.122;2022-08-21T01:47:33;100874.34;;;26.45
67599;BMP280;62026;39.230;9.122;2022-08-21T01:50:00;100874.59;;;26.44
67599;BMP280;62026;39.230;9.122;2022-08-21T01:52:28;100875.75;;;26.43
67599;BMP280;62026;39.230;9.122;2022-08-21T01:54:54;100868.75;;;26.42
67599;BMP280;62026;39.230;9.122;2022-08-21T01:57:20;100872.09;;;26.47
67599;BMP280;62026;39.230;9.122;2022-08-21T01:59:47;100870.78;;;26.45
67599;BMP280;62026;39.230;9.122;2022-08-21T02:02:13;100867.13;;;26.40
67599;BMP280;62026;39.230;9.122;2022-08-21T02:04:39;100864.78;;;26.39
67599;BMP280;62026;39.230;9.122;2022-08-21T02:07:05;100858.06;;;26.36
67599;BMP280;62026;39.230;9.122;2022-08-21T02:09:32;100860.78;;;26.36
67599;BMP280;62026;39.230;9.122;2022-08-21T02:11:59;100859.81;;;26.32
67599;BMP280;62026;39.230;9.122;2022-08-21T02:14:25;100859.81;;;26.32
67599;BMP280;62026;39.230;9.122;2022-08-21T02:16:51;100860.44;;;26.29
67599;BMP280;62026;39.230;9.122;2022-08-21T02:19:18;100852.63;;;26.28
67599;BMP280;62026;39.230;9.122;2022-08-21T02:21:44;100854.06;;;26.25
67599;BMP280;62026;39.230;9.122;2022-08-21T02:24:11;100856.94;;;26.29
67599;BMP280;62026;39.230;9.122;2022-08-21T02:26:37;100856.13;;;26.28
67599;BMP280;62026;39.230;9.122;2022-08-21T02:29:05;100864.25;;;26.28
67599;BMP280;62026;39.230;9.122;2022-08-21T02:31:31;100854.88;;;26.26
67599;BMP280;62026;39.230;9.122;2022-08-21T02:33:58;100858.84;;;26.28
67599;BMP280;62026;39.230;9.122;2022-08-21T02:36:25;100856.44;;;26.27
67599;BMP280;62026;39.230;9.122;2022-08-21T02:38:52;100856.13;;;26.20
67599;BMP280;62026;39.230;9.122;2022-08-21T02:41:21;100852.94;;;26.18
67599;BMP280;62026;39.230;9.122;2022-08-21T02:43:47;100850.91;;;26.23
67599;BMP280;62026;39.230;9.122;2022-08-21T02:46:17;100852.03;;;26.22
67599;BMP280;62026;39.230;9.122;2022-08-21T02:48:44;100853.75;;;26.18
67599;BMP280;62026;39.230;9.122;2022-08-21T02:51:19;100847.34;;;26.14
67599;BMP280;62026;39.230;9.122;2022-08-21T02:53:47;100846.25;;;26.15
67599;BMP280;62026;39.230;9.122;2022-08-21T02:56:17;100842.56;;;26.11
67599;BMP280;62026;39.230;9.122;2022-08-21T02:58:50;100846.88;;;26.12
67599;BMP280;62026;39.230;9.122;2022-08-21T03:01:18;100839.41;;;26.09
67599;BMP280;62026;39.230;9.122;2022-08-21T03:03:47;100837.16;;;26.11
67599;BMP280;62026;39.230;9.122;2022-08-21T03:06:18;100838.31;;;26.10
67599;BMP280;62026;39.230;9.122;2022-08-21T03:08:44;100820.25;;;25.97
67599;BMP280;62026;39.230;9.122;2022-08-21T03:11:12;100839.53;;;26.04
67599;BMP280;62026;39.230;9.122;2022-08-21T03:13:38;100839.41;;;26.09
67599;BMP280;62026;39.230;9.122;2022-08-21T03:16:05;100823.31;;;25.95
67599;BMP280;62026;39.230;9.122;2022-08-21T03:18:31;100842.25;;;26.04
67599;BMP280;62026;39.230;9.122;2022-08-21T03:20:58;100847.03;;;26.07
67599;BMP280;62026;39.230;9.122;2022-08-21T03:23:24;100832.22;;;26.05
67599;BMP280;62026;39.230;9.122;2022-08-21T03:25:50;100847.66;;;26.04
67599;BMP280;62026;39.230;9.122;2022-08-21T03:28:20;100839.88;;;26.03
67599;BMP280;62026;39.230;9.122;2022-08-21T03:30:50;100829.97;;;25.98
67599;BMP280;62026;39.230;9.122;2022-08-21T03:33:17;100834.78;;;26.01
67599;BMP280;62026;39.230;9.122;2022-08-21T03:35:49;100841.44;;;25.95
67599;BMP280;62026;39.230;9.122;2022-08-21T03:38:17;100840.34;;;25.96
67599;BMP280;62026;39.230;9.122;2022-08-21T03:40:45;100832.53;;;25.94
67599;BMP280;62026;39.230;9.122;2022-08-21T03:43:11;100833.97;;;25.92
67599;BMP280;62026;39.230;9.122;2022-08-21T03:45:38;100828.22;;;25.85
67599;BMP280;62026;39.230;9.122;2022-08-21T03:48:07;100835.22;;;25.86
67599;BMP280;62026;39.230;9.122;2022-08-21T03:50:38;100838.41;;;25.88
67599;BMP280;62026;39.230;9.122;2022-08-21T03:53:05;100831.41;;;25.87
67599;BMP280;62026;39.230;9.122;2022-08-21T03:55:32;100832.97;;;25.88
67599;BMP280;62026;39.230;9.122;2022-08-21T03:57:58;100822.97;;;25.80
67599;BMP280;62026;39.230;9.122;2022-08-21T04:00:25;100838.06;;;25.81
67599;BMP280;62026;39.230;9.122;2022-08-21T04:02:51;100840.75;;;25.81
67599;BMP280;62026;39.230;9.122;2022-08-21T04:05:18;100844.91;;;25.78
67599;BMP280;62026;39.230;9.122;2022-08-21T04:08:02;100845.25;;;25.77
67599;BMP280;62026;39.230;9.122;2022-08-21T04:10:33;100837.13;;;25.77
67599;BMP280;62026;39.230;9.122;2022-08-21T04:13:01;100827.88;;;25.69
67599;BMP280;62026;39.230;9.122;2022-08-21T04:15:28;100836.59;;;25.75
67599;BMP280;62026;39.230;9.122;2022-08-21T04:17:54;100832.47;;;25.69
67599;BMP280;62026;39.230;9.122;2022-08-21T04:20:22;100840.44;;;25.74
67599;BMP280;62026;39.230;9.122;2022-08-21T04:22:49;100831.19;;;25.66
67599;BMP280;62026;39.230;9.122;2022-08-21T04:25:17;100831.38;;;25.70
67599;BMP280;62026;39.230;9.122;2022-08-21T04:27:44;100830.03;;;25.67
67599;BMP280;62026;39.230;9.122;2022-08-21T04:30:13;100821.44;;;25.56
67599;BMP280;62026;39.230;9.122;2022-08-21T04:32:47;100828.63;;;25.61
67599;BMP280;62026;39.230;9.122;2022-08-21T04:35:15;100838.69;;;25.69
67599;BMP280;62026;39.230;9.122;2022-08-21T04:37:42;100825.59;;;25.63
67599;BMP280;62026;39.230;9.122;2022-08-21T04:40:11;100841.66;;;25.68
67599;BMP280;62026;39.230;9.122;2022-08-21T04:42:46;100847.06;;;25.68
67599;BMP280;62026;39.230;9.122;2022-08-21T04:45:42;100844.69;;;25.66
67599;BMP280;62026;39.230;9.122;2022-08-21T04:48:12;100841.84;;;25.63
67599;BMP280;62026;39.230;9.122;2022-08-21T04:50:59;100842.94;;;25.62
67599;BMP280;62026;39.230;9.122;2022-08-21T04:54:28;100829.56;;;25.56
67599;BMP280;62026;39.230;9.122;2022-08-21T04:56:54;100818.69;;;25.48
67599;BMP280;62026;39.230;9.122;2022-08-21T04:59:31;100834.16;;;25.56
67599;BMP280;62026;39.230;9.122;2022-08-21T05:02:00;100841.31;;;25.61
67599;BMP280;62026;39.230;9.122;2022-08-21T05:04:30;100833.84;;;25.57
67599;BMP280;62026;39.230;9.122;2022-08-21T05:07:02;100838.94;;;25.59
67599;BMP280;62026;39.230;9.122;2022-08-21T05:09:29;100833.84;;;25.57
67599;BMP280;62026;39.230;9.122;2022-08-21T05:11:56;100839.25;;;25.57
67599;BMP280;62026;39.230;9.122;2022-08-21T05:14:23;100831.78;;;25.54
67599;BMP280;62026;39.230;9.122;2022-08-21T05:16:49;100841.03;;;25.62
67599;BMP280;62026;39.230;9.122;2022-08-21T05:19:15;100829.69;;;25.51
67599;BMP280;62026;39.230;9.122;2022-08-21T05:21:46;100844.34;;;25.59
67599;BMP280;62026;39.230;9.122;2022-08-21T05:24:14;100828.44;;;25.57
67599;BMP280;62026;39.230;9.122;2022-08-21T05:26:40;100838.94;;;25.59
67599;BMP280;62026;39.230;9.122;2022-08-21T05:29:06;100848.97;;;25.67
67599;BMP280;62026;39.230;9.122;2022-08-21T05:31:33;100834.03;;;25.61
67599;BMP280;62026;39.230;9.122;2022-08-21T05:33:59;100856.53;;;25.79
67599;BMP280;62026;39.230;9.122;2022-08-21T05:36:25;100852.72;;;25.80
67599;BMP280;62026;39.230;9.122;2022-08-21T05:38:52;100852.56;;;25.85
67599;BMP280;62026;39.230;9.122;2022-08-21T05:41:18;100850.66;;;25.85
67599;BMP280;62026;39.230;9.122;2022-08-21T05:43:44;100858.78;;;25.94
67599;BMP280;62026;39.230;9.122;2022-08-21T05:46:10;100848.91;;;25.98
67599;BMP280;62026;39.230;9.122;2022-08-21T05:48:36;100853.72;;;26.01
67599;BMP280;62026;39.230;9.122;2022-08-21T05:51:09;100859.81;;;26.15
67599;BMP280;62026;39.230;9.122;2022-08-21T05:53:36;100853.28;;;26.16
67599;BMP280;62026;39.230;9.122;2022-08-21T05:56:04;100863.66;;;26.23
67599;BMP280;62026;39.230;9.122;2022-08-21T05:58:32;100862.03;;;26.30
67599;BMP280;62026;39.230;9.122;2022-08-21T06:01:01;100864.59;;;26.35
67599;BMP280;62026;39.230;9.122;2022-08-21T06:03:34;100859.66;;;26.37
67599;BMP280;62026;39.230;9.122;2022-08-21T06:06:02;100864.91;;;26.43
67599;BMP280;62026;39.230;9.122;2022-08-21T06:08:28;100865.41;;;26.53
67599;BMP280;62026;39.230;9.122;2022-08-21T06:10:58;100855.97;;;26.51
67599;BMP280;62026;39.230;9.122;2022-08-21T06:13:26;100848.81;;;26.63
67599;BMP280;62026;39.230;9.122;2022-08-21T06:16:14;100851.66;;;26.67
67599;BMP280;62026;39.230;9.122;2022-08-21T06:18:41;100847.69;;;26.73
67599;BMP280;62026;39.230;9.122;2022-08-21T06:21:08;100851.81;;;26.79
67599;BMP280;62026;39.230;9.122;2022-08-21T06:23:34;100854.22;;;26.80
67599;BMP280;62026;39.230;9.122;2022-08-21T06:26:02;100849.13;;;26.88
67599;BMP280;62026;39.230;9.122;2022-08-21T06:28:31;100835.88;;;26.86
67599;BMP280;62026;39.230;9.122;2022-08-21T06:30:58;100849.09;;;26.96
67599;BMP280;62026;39.230;9.122;2022-08-21T06:33:24;100843.53;;;27.01
67599;BMP280;62026;39.230;9.122;2022-08-21T06:35:50;100829.31;;;26.96
67599;BMP280;62026;39.230;9.122;2022-08-21T06:38:17;100853.34;;;27.14
67599;BMP280;62026;39.230;9.122;2022-08-21T06:40:43;100843.59;;;27.22
67599;BMP280;62026;39.230;9.122;2022-08-21T06:43:14;100848.69;;;27.23
67599;BMP280;62026;39.230;9.122;2022-08-21T06:45:41;100849.16;;;27.26
67599;BMP280;62026;39.230;9.122;2022-08-21T06:48:07;100851.03;;;27.34
67599;BMP280;62026;39.230;9.122;2022-08-21T06:50:35;100857.13;;;27.31
67599;BMP280;62026;39.230;9.122;2022-08-21T06:53:09;100850.41;;;27.37
67599;BMP280;62026;39.230;9.122;2022-08-21T06:55:36;100857.88;;;27.40
67599;BMP280;62026;39.230;9.122;2022-08-21T06:58:04;100851.63;;;27.48
67599;BMP280;62026;39.230;9.122;2022-08-21T07:00:31;100854.16;;;27.53
67599;BMP280;62026;39.230;9.122;2022-08-21T07:02:58;100848.94;;;27.48
67599;BMP280;62026;39.230;9.122;2022-08-21T07:05:29;100855.59;;;27.50
67599;BMP280;62026;39.230;9.122;2022-08-21T07:07:56;100865.91;;;27.65
67599;BMP280;62026;39.230;9.122;2022-08-21T07:10:27;100843.75;;;27.55
67599;BMP280;62026;39.230;9.122;2022-08-21T07:12:54;100853.84;;;27.84
67599;BMP280;62026;39.230;9.122;2022-08-21T07:15:21;100846.25;;;27.89
67599;BMP280;62026;39.230;9.122;2022-08-21T07:17:47;100846.25;;;27.89
67599;BMP280;62026;39.230;9.122;2022-08-21T07:20:13;100838.13;;;27.98
67599;BMP280;62026;39.230;9.122;2022-08-21T07:22:40;100829.75;;;28.24
67599;BMP280;62026;39.230;9.122;2022-08-21T07:25:07;100839.38;;;28.21
67599;BMP280;62026;39.230;9.122;2022-08-21T07:27:33;100844.72;;;28.30
67599;BMP280;62026;39.230;9.122;2022-08-21T07:30:00;100846.72;;;28.21
67599;BMP280;62026;39.230;9.122;2022-08-21T07:32:26;100843.16;;;28.29
67599;BMP280;62026;39.230;9.122;2022-08-21T07:34:52;100847.91;;;28.32
67599;BMP280;62026;39.230;9.122;2022-08-21T07:37:18;100843.25;;;28.53
67599;BMP280;62026;39.230;9.122;2022-08-21T07:39:45;100848.94;;;28.72
67599;BMP280;62026;39.230;9.122;2022-08-21T07:42:15;100852.34;;;28.69
67599;BMP280;62026;39.230;9.122;2022-08-21T07:44:41;100849.78;;;28.85
67599;BMP280;62026;39.230;9.122;2022-08-21T07:47:08;100844.66;;;28.71
67599;BMP280;62026;39.230;9.122;2022-08-21T07:49:34;100837.38;;;28.63
67599;BMP280;62026;39.230;9.122;2022-08-21T07:52:00;100843.84;;;28.71
67599;BMP280;62026;39.230;9.122;2022-08-21T07:54:27;100846.38;;;28.76
67599;BMP280;62026;39.230;9.122;2022-08-21T07:56:53;100826.22;;;28.77
67599;BMP280;62026;39.230;9.122;2022-08-21T07:59:19;100848.97;;;28.84
67599;BMP280;62026;39.230;9.122;2022-08-21T08:01:45;100829.38;;;28.79
67599;BMP280;62026;39.230;9.122;2022-08-21T08:04:12;100837.13;;;29.01
67599;BMP280;62026;39.230;9.122;2022-08-21T08:06:38;100839.25;;;28.95
67599;BMP280;62026;39.230;9.122;2022-08-21T08:09:04;100837.13;;;29.01
67599;BMP280;62026;39.230;9.122;2022-08-21T08:11:30;100838.84;;;29.18
67599;BMP280;62026;39.230;9.122;2022-08-21T08:13:57;100830.66;;;29.18
67599;BMP280;62026;39.230;9.122;2022-08-21T08:16:26;100821.84;;;29.33
67599;BMP280;62026;39.230;9.122;2022-08-21T08:18:52;100828.75;;;29.30
67599;BMP280;62026;39.230;9.122;2022-08-21T08:21:19;100827.50;;;29.40
67599;BMP280;62026;39.230;9.122;2022-08-21T08:23:47;100817.09;;;29.30
67599;BMP280;62026;39.230;9.122;2022-08-21T08:26:13;100824.75;;;29.40
67599;BMP280;62026;39.230;9.122;2022-08-21T08:28:41;100828.84;;;29.46
67599;BMP280;62026;39.230;9.122;2022-08-21T08:31:07;100811.41;;;29.59
67599;BMP280;62026;39.230;9.122;2022-08-21T08:33:34;100822.25;;;29.71
67599;BMP280;62026;39.230;9.122;2022-08-21T08:36:00;100817.38;;;29.77
67599;BMP280;62026;39.230;9.122;2022-08-21T08:38:26;100816.09;;;29.74
67599;BMP280;62026;39.230;9.122;2022-08-21T08:41:08;100813.34;;;29.87
67599;BMP280;62026;39.230;9.122;2022-08-21T08:43:37;100819.19;;;30.13
67599;BMP280;62026;39.230;9.122;2022-08-21T08:46:12;100811.97;;;30.20
67599;BMP280;62026;39.230;9.122;2022-08-21T08:48:55;100813.28;;;30.11
67599;BMP280;62026;39.230;9.122;2022-08-21T08:54:07;100802.94;;;30.32
67599;BMP280;62026;39.230;9.122;2022-08-21T08:56:35;100796.44;;;30.21
67599;BMP280;62026;39.230;9.122;2022-08-21T08:59:19;100807.56;;;30.44
67599;BMP280;62026;39.230;9.122;2022-08-21T09:01:46;100795.78;;;30.55
67599;BMP280;62026;39.230;9.122;2022-08-21T09:04:23;100798.94;;;30.57
67599;BMP280;62026;39.230;9.122;2022-08-21T09:10:18;100796.75;;;30.79
67599;BMP280;62026;39.230;9.122;2022-08-21T09:13:06;100793.69;;;30.64
67599;BMP280;62026;39.230;9.122;2022-08-21T09:16:08;100788.31;;;30.52
67599;BMP280;62026;39.230;9.122;2022-08-21T09:21:46;100792.78;;;30.60
67599;BMP280;62026;39.230;9.122;2022-08-21T09:25:15;100786.50;;;30.88
67599;BMP280;62026;39.230;9.122;2022-08-21T09:27:44;100778.16;;;31.00
67599;BMP280;62026;39.230;9.122;2022-08-21T09:30:12;100779.50;;;31.06
67599;BMP280;62026;39.230;9.122;2022-08-21T09:32:39;100781.19;;;30.95
67599;BMP280;62026;39.230;9.122;2022-08-21T09:35:21;100764.66;;;30.88
67599;BMP280;62026;39.230;9.122;2022-08-21T09:38:02;100762.72;;;31.04
67599;BMP280;62026;39.230;9.122;2022-08-21T09:40:42;100763.78;;;31.18
67599;BMP280;62026;39.230;9.122;2022-08-21T09:45:40;100756.25;;;31.12
67599;BMP280;62026;39.230;9.122;2022-08-21T09:48:10;100757.66;;;31.06
67599;BMP280;62026;39.230;9.122;2022-08-21T09:50:36;100767.16;;;31.12
67599;BMP280;62026;39.230;9.122;2022-08-21T09:53:03;100761.34;;;31.13
67599;BMP280;62026;39.230;9.122;2022-08-21T09:55:47;100759.78;;;31.12
67599;BMP280;62026;39.230;9.122;2022-08-21T09:58:36;100750.38;;;31.10
67599;BMP280;62026;39.230;9.122;2022-08-21T10:01:06;100754.69;;;31.30
67599;BMP280;62026;39.230;9.122;2022-08-21T10:03:33;100760.00;;;31.23
67599;BMP280;62026;39.230;9.122;2022-08-21T10:06:05;100754.28;;;31.28
67599;BMP280;62026;39.230;9.122;2022-08-21T10:08:37;100747.66;;;31.29
67599;BMP280;62026;39.230;9.122;2022-08-21T10:11:14;100763.25;;;31.29
67599;BMP280;62026;39.230;9.122;2022-08-21T10:23:17;100748.22;;;31.19
67599;BMP280;62026;39.230;9.122;2022-08-21T10:33:12;100736.91;;;31.01
67599;BMP280;62026;39.230;9.122;2022-08-21T10:35:14;100730.06;;;30.92
67599;BMP280;62026;39.230;9.122;2022-08-21T10:50:01;100715.47;;;30.68
67599;BMP280;62026;39.230;9.122;2022-08-21T10:53:03;100719.00;;;30.69
67599;BMP280;62026;39.230;9.122;2022-08-21T10:55:39;100709.00;;;30.73
67599;BMP280;62026;39.230;9.122;2022-08-21T10:58:14;100708.81;;;30.66
67599;BMP280;62026;39.230;9.122;2022-08-21T11:00:53;100711.19;;;30.67
67599;BMP280;62026;39.230;9.122;2022-08-21T11:03:35;100702.28;;;30.70
67599;BMP280;62026;39.230;9.122;2022-08-21T11:06:25;100701.69;;;30.61
67599;BMP280;62026;39.230;9.122;2022-08-21T11:09:11;100703.53;;;30.57
67599;BMP280;62026;39.230;9.122;2022-08-21T11:11:53;100675.75;;;30.52
67599;BMP280;62026;39.230;9.122;2022-08-21T11:17:23;100694.59;;;30.57
67599;BMP280;62026;39.230;9.122;2022-08-21T11:20:13;100690.44;;;30.47
67599;BMP280;62026;39.230;9.122;2022-08-21T11:23:00;100700.38;;;30.55
67599;BMP280;62026;39.230;9.122;2022-08-21T11:25:40;100678.13;;;30.53
67599;BMP280;62026;39.230;9.122;2022-08-21T11:28:16;100680.66;;;30.46
67599;BMP280;62026;39.230;9.122;2022-08-21T11:40:58;100678.28;;;30.60
67599;BMP280;62026;39.230;9.122;2022-08-21T11:45:54;100672.50;;;30.46
67599;BMP280;62026;39.230;9.122;2022-08-21T11:48:57;100677.94;;;30.46
67599;BMP280;62026;39.230;9.122;2022-08-21T11:55:08;100683.69;;;30.57
67599;BMP280;62026;39.230;9.122;2022-08-21T11:58:00;100673.66;;;30.45
67599;BMP280;62026;39.230;9.122;2022-08-21T12:00:49;100677.00;;;30.39
67599;BMP280;62026;39.230;9.122;2022-08-21T12:03:29;100666.38;;;30.34
67599;BMP280;62026;39.230;9.122;2022-08-21T12:06:09;100642.34;;;30.23
67599;BMP280;62026;39.230;9.122;2022-08-21T12:08:57;100662.22;;;30.40
67599;BMP280;62026;39.230;9.122;2022-08-21T12:11:26;100658.28;;;30.37
67599;BMP280;62026;39.230;9.122;2022-08-21T12:13:59;100660.28;;;30.40
67599;BMP280;62026;39.230;9.122;2022-08-21T12:16:35;100677.78;;;30.39
67599;BMP280;62026;39.230;9.122;2022-08-21T12:19:28;100658.34;;;30.41
67599;BMP280;62026;39.230;9.122;2022-08-21T12:24:39;100657.31;;;30.45
67599;BMP280;62026;39.230;9.122;2022-08-21T12:29:52;100644.22;;;30.35
67599;BMP280;62026;39.230;9.122;2022-08-21T12:32:43;100652.84;;;30.37
67599;BMP280;62026;39.230;9.122;2022-08-21T12:35:17;100636.31;;;30.30
67599;BMP280;62026;39.230;9.122;2022-08-21T12:38:17;100641.03;;;30.33
67599;BMP280;62026;39.230;9.122;2022-08-21T12:41:14;100634.91;;;30.36
67599;BMP280;62026;39.230;9.122;2022-08-21T12:43:48;100626.63;;;30.33
67599;BMP280;62026;39.230;9.122;2022-08-21T12:52:09;100616.16;;;30.35
67599;BMP280;62026;39.230;9.122;2022-08-21T12:54:43;100616.25;;;30.38
67599;BMP280;62026;39.230;9.122;2022-08-21T12:57:28;100624.88;;;30.40
67599;BMP280;62026;39.230;9.122;2022-08-21T13:00:05;100610.59;;;30.47
67599;BMP280;62026;39.230;9.122;2022-08-21T13:02:43;100612.50;;;30.43
67599;BMP280;62026;39.230;9.122;2022-08-21T13:05:33;100613.19;;;30.40
67599;BMP280;62026;39.230;9.122;2022-08-21T13:08:05;100613.69;;;30.45
67599;BMP280;62026;39.230;9.122;2022-08-21T13:10:34;100612.53;;;30.46
67599;BMP280;62026;39.230;9.122;2022-08-21T13:13:11;100602.34;;;30.43
67599;BMP280;62026;39.230;9.122;2022-08-21T13:15:41;100601.59;;;30.43
67599;BMP280;62026;39.230;9.122;2022-08-21T13:18:08;100604.00;;;30.48
67599;BMP280;62026;39.230;9.122;2022-08-21T13:20:38;100598.75;;;30.39
67599;BMP280;62026;39.230;9.122;2022-08-21T13:23:25;100593.47;;;30.46
67599;BMP280;62026;39.230;9.122;2022-08-21T13:25:53;100600.78;;;30.42
67599;BMP280;62026;39.230;9.122;2022-08-21T13:28:20;100603.22;;;30.47
67599;BMP280;62026;39.230;9.122;2022-08-21T13:30:54;100587.44;;;30.37
67599;BMP280;62026;39.230;9.122;2022-08-21T13:33:25;100582.84;;;30.41
67599;BMP280;62026;39.230;9.122;2022-08-21T13:36:11;100599.22;;;30.41
67599;BMP280;62026;39.230;9.122;2022-08-21T13:38:42;100602.19;;;30.36
67599;BMP280;62026;39.230;9.122;2022-08-21T13:43:49;100587.59;;;30.44
67599;BMP280;62026;39.230;9.122;2022-08-21T13:46:20;100587.25;;;30.46
67599;BMP280;62026;39.230;9.122;2022-08-21T13:48:48;100587.31;;;30.49
67599;BMP280;62026;39.230;9.122;2022-08-21T13:51:14;100578.53;;;30.40
67599;BMP280;62026;39.230;9.122;2022-08-21T13:56:44;100589.91;;;30.42
67599;BMP280;62026;39.230;9.122;2022-08-21T13:59:11;100576.75;;;30.48
67599;BMP280;62026;39.230;9.122;2022-08-21T14:01:52;100570.19;;;30.33
67599;BMP280;62026;39.230;9.122;2022-08-21T14:04:24;100581.88;;;30.49
67599;BMP280;62026;39.230;9.122;2022-08-21T14:06:52;100578.28;;;30.45
67599;BMP280;62026;39.230;9.122;2022-08-21T14:09:43;100578.78;;;30.51
67599;BMP280;62026;39.230;9.122;2022-08-21T14:12:37;100583.88;;;30.52
67599;BMP280;62026;39.230;9.122;2022-08-21T14:15:06;100579.59;;;30.51
67599;BMP280;62026;39.230;9.122;2022-08-21T14:17:37;100562.91;;;30.37
67599;BMP280;62026;39.230;9.122;2022-08-21T14:20:12;100568.09;;;30.42
67599;BMP280;62026;39.230;9.122;2022-08-21T14:22:43;100566.66;;;30.48
67599;BMP280;62026;39.230;9.122;2022-08-21T14:25:42;100570.69;;;30.54
67599;BMP280;62026;39.230;9.122;2022-08-21T14:28:21;100574.38;;;30.46
67599;BMP280;62026;39.230;9.122;2022-08-21T14:30:51;100574.13;;;30.51
67599;BMP280;62026;39.230;9.122;2022-08-21T14:33:31;100573.34;;;30.51
67599;BMP280;62026;39.230;9.122;2022-08-21T14:35:58;100569.03;;;30.50
67599;BMP280;62026;39.230;9.122;2022-08-21T14:38:27;100547.09;;;30.43
67599;BMP280;62026;39.230;9.122;2022-08-21T14:41:00;100557.34;;;30.49
67599;BMP280;62026;39.230;9.122;2022-08-21T14:43:31;100561.28;;;30.52
67599;BMP280;62026;39.230;9.122;2022-08-21T14:45:57;100572.97;;;30.52
67599;BMP280;62026;39.230;9.122;2022-08-21T14:48:23;100568.25;;;30.49
67599;BMP280;62026;39.230;9.122;2022-08-21T14:50:50;100556.81;;;30.44
67599;BMP280;62026;39.230;9.122;2022-08-21T14:53:16;100555.75;;;30.48
67599;BMP280;62026;39.230;9.122;2022-08-21T14:55:43;100565.50;;;30.49
67599;BMP280;62026;39.230;9.122;2022-08-21T14:58:27;100561.53;;;30.47
67599;BMP280;62026;39.230;9.122;2022-08-21T15:00:54;100550.84;;;30.38
67599;BMP280;62026;39.230;9.122;2022-08-21T15:03:22;100561.19;;;30.48
67599;BMP280;62026;39.230;9.122;2022-08-21T15:05:48;100549.34;;;30.41
67599;BMP280;62026;39.230;9.122;2022-08-21T15:08:16;100560.75;;;30.46
67599;BMP280;62026;39.230;9.122;2022-08-21T15:10:43;100556.47;;;30.45
67599;BMP280;62026;39.230;9.122;2022-08-21T15:13:10;100548.72;;;30.47
67599;BMP280;62026;39.230;9.122;2022-08-21T15:15:44;100553.38;;;30.47
67599;BMP280;62026;39.230;9.122;2022-08-21T15:18:11;100543.13;;;30.40
67599;BMP280;62026;39.230;9.122;2022-08-21T15:20:37;100539.66;;;30.43
67599;BMP280;62026;39.230;9.122;2022-08-21T15:23:06;100555.59;;;30.41
67599;BMP280;62026;39.230;9.122;2022-08-21T15:25:35;100554.75;;;30.37
67599;BMP280;62026;39.230;9.122;2022-08-21T15:28:03;100560.34;;;30.44
67599;BMP280;62026;39.230;9.122;2022-08-21T15:30:31;100551.28;;;30.40
67599;BMP280;62026;39.230;9.122;2022-08-21T15:32:57;100541.34;;;30.32
67599;BMP280;62026;39.230;9.122;2022-08-21T15:35:24;100544.59;;;30.38
67599;BMP280;62026;39.230;9.122;2022-08-21T15:37:50;100535.13;;;30.32